sensor_id;sensor_type;location;lat;lon;timestamp;P1;durP1;ratioP1;P2;durP2;ratioP2
15228;SDS011;7717;47.792;12.076;2024-02-28T00:00:47;24.17;;;15.87;;
15228;SDS011;7717;47.792;12.076;2024-02-28T00:03:12;26.10;;;17.07;;
15228;SDS011;7717;47.792;12.076;2024-02-28T00:05:38;26.03;;;17.77;;
15228;SDS011;7717;47.792;12.076;2024-02-28T00:08:04;30.17;;;18.50;;
15228;SDS011;7717;47.792;12.076;2024-02-28T00:10:29;34.07;;;19.60;;
15228;SDS011;7717;47.792;12.076;2024-02-28T00:12:54;29.60;;;19.50;;
15228;SDS011;7717;47.792;12.076;2024-02-28T00:15:20;28.40;;;17.73;;
15228;SDS011;7717;47.792;12.076;2024-02-28T00:17:45;24.87;;;16.20;;
15228;SDS011;7717;47.792;12.076;2024-02-28T00:20:11;24.60;;;16.90;;
15228;SDS011;7717;47.792;12.076;2024-02-28T00:22:37;26.63;;;18.30;;
15228;SDS011;7717;47.792;12.076;2024-02-28T00:25:03;26.17;;;17.47;;
15228;SDS011;7717;47.792;12.076;2024-02-28T00:27:31;27.17;;;18.60;;
15228;SDS011;7717;47.792;12.076;2024-02-28T00:29:57;25.90;;;17.47;;
15228;SDS011;7717;47.792;12.076;2024-02-28T00:32:22;25.27;;;17.10;;
15228;SDS011;7717;47.792;12.076;2024-02-28T00:34:47;25.60;;;17.87;;
15228;SDS011;7717;47.792;12.076;2024-02-28T00:37:13;29.80;;;17.87;;
15228;SDS011;7717;47.792;12.076;2024-02-28T00:39:38;29.17;;;18.00;;
15228;SDS011;7717;47.792;12.076;2024-02-28T00:42:03;26.47;;;17.50;;
15228;SDS011;7717;47.792;12.076;2024-02-28T00:44:29;25.13;;;16.70;;
15228;SDS011;7717;47.792;12.076;2024-02-28T00:46:54;26.97;;;16.37;;
15228;SDS011;7717;47.792;12.076;2024-02-28T00:49:20;24.73;;;17.20;;
15228;SDS011;7717;47.792;12.076;2024-02-28T00:51:46;28.73;;;17.27;;
15228;SDS011;7717;47.792;12.076;2024-02-28T00:54:11;27.87;;;17.60;;
15228;SDS011;7717;47.792;12.076;2024-02-28T00:56:36;23.73;;;15.43;;
15228;SDS011;7717;47.792;12.076;2024-02-28T00:59:02;26.63;;;17.77;;
15228;SDS011;7717;47.792;12.076;2024-02-28T01:01:28;26.63;;;16.63;;
15228;SDS011;7717;47.792;12.076;2024-02-28T01:03:53;25.17;;;17.67;;
15228;SDS011;7717;47.792;12.076;2024-02-28T01:06:18;30.33;;;17.33;;
15228;SDS011;7717;47.792;12.076;2024-02-28T01:08:44;26.33;;;16.53;;
15228;SDS011;7717;47.792;12.076;2024-02-28T01:11:10;27.20;;;17.80;;
15228;SDS011;7717;47.792;12.076;2024-02-28T01:13:35;29.23;;;17.40;;
15228;SDS011;7717;47.792;12.076;2024-02-28T01:16:01;26.30;;;16.87;;
15228;SDS011;7717;47.792;12.076;2024-02-28T01:18:26;26.17;;;16.73;;
15228;SDS011;7717;47.792;12.076;2024-02-28T01:20:55;26.83;;;16.87;;
15228;SDS011;7717;47.792;12.076;2024-02-28T01:23:20;24.90;;;15.47;;
15228;SDS011;7717;47.792;12.076;2024-02-28T01:25:46;27.33;;;17.13;;
15228;SDS011;7717;47.792;12.076;2024-02-28T01:28:11;31.90;;;17.67;;
15228;SDS011;7717;47.792;12.076;2024-02-28T01:30:37;21.90;;;15.47;;
15228;SDS011;7717;47.792;12.076;2024-02-28T01:33:02;26.27;;;16.90;;
15228;SDS011;7717;47.792;12.076;2024-02-28T01:35:28;24.17;;;16.33;;
15228;SDS011;7717;47.792;12.076;2024-02-28T01:37:53;25.80;;;16.50;;
15228;SDS011;7717;47.792;12.076;2024-02-28T01:40:19;23.23;;;16.30;;
15228;SDS011;7717;47.792;12.076;2024-02-28T01:42:45;26.33;;;17.80;;
15228;SDS011;7717;47.792;12.076;2024-02-28T01:45:12;25.40;;;16.07;;
15228;SDS011;7717;47.792;12.076;2024-02-28T01:47:39;23.90;;;15.80;;
15228;SDS011;7717;47.792;12.076;2024-02-28T01:50:06;25.83;;;16.67;;
15228;SDS011;7717;47.792;12.076;2024-02-28T01:52:32;24.00;;;15.90;;
15228;SDS011;7717;47.792;12.076;2024-02-28T01:54:58;26.93;;;15.47;;
15228;SDS011;7717;47.792;12.076;2024-02-28T01:57:24;24.47;;;15.37;;
15228;SDS011;7717;47.792;12.076;2024-02-28T01:59:50;25.37;;;15.10;;
15228;SDS011;7717;47.792;12.076;2024-02-28T02:02:17;23.27;;;14.80;;
15228;SDS011;7717;47.792;12.076;2024-02-28T02:04:42;22.63;;;15.20;;
15228;SDS011;7717;47.792;12.076;2024-02-28T02:07:07;23.63;;;14.87;;
15228;SDS011;7717;47.792;12.076;2024-02-28T02:09:33;21.20;;;14.13;;
15228;SDS011;7717;47.792;12.076;2024-02-28T02:11:59;21.37;;;14.73;;
15228;SDS011;7717;47.792;12.076;2024-02-28T02:14:25;23.67;;;15.27;;
15228;SDS011;7717;47.792;12.076;2024-02-28T02:16:50;21.10;;;14.67;;
15228;SDS011;7717;47.792;12.076;2024-02-28T02:19:15;18.57;;;12.80;;
15228;SDS011;7717;47.792;12.076;2024-02-28T02:21:43;18.03;;;13.23;;
15228;SDS011;7717;47.792;12.076;2024-02-28T02:24:15;20.87;;;13.80;;
15228;SDS011;7717;47.792;12.076;2024-02-28T02:26:41;20.30;;;13.63;;
15228;SDS011;7717;47.792;12.076;2024-02-28T02:29:09;20.67;;;13.30;;
15228;SDS011;7717;47.792;12.076;2024-02-28T02:31:34;18.27;;;13.07;;
15228;SDS011;7717;47.792;12.076;2024-02-28T02:33:59;20.87;;;14.03;;
15228;SDS011;7717;47.792;12.076;2024-02-28T02:36:25;19.77;;;14.43;;
15228;SDS011;7717;47.792;12.076;2024-02-28T02:38:50;19.37;;;13.17;;
15228;SDS011;7717;47.792;12.076;2024-02-28T02:41:16;19.47;;;13.37;;
15228;SDS011;7717;47.792;12.076;2024-02-28T02:43:41;22.53;;;13.87;;
15228;SDS011;7717;47.792;12.076;2024-02-28T02:46:06;19.10;;;13.07;;
15228;SDS011;7717;47.792;12.076;2024-02-28T02:48:31;18.07;;;13.40;;
15228;SDS011;7717;47.792;12.076;2024-02-28T02:50:57;19.10;;;13.53;;
15228;SDS011;7717;47.792;12.076;2024-02-28T02:53:23;20.03;;;14.23;;
15228;SDS011;7717;47.792;12.076;2024-02-28T02:55:48;22.53;;;14.50;;
15228;SDS011;7717;47.792;12.076;2024-02-28T02:58:13;21.57;;;14.17;;
15228;SDS011;7717;47.792;12.076;2024-02-28T03:00:39;21.90;;;14.67;;
15228;SDS011;7717;47.792;12.076;2024-02-28T03:03:04;21.57;;;14.87;;
15228;SDS011;7717;47.792;12.076;2024-02-28T03:05:30;21.70;;;14.03;;
15228;SDS011;7717;47.792;12.076;2024-02-28T03:07:56;18.90;;;13.73;;
15228;SDS011;7717;47.792;12.076;2024-02-28T03:10:21;20.67;;;13.77;;
15228;SDS011;7717;47.792;12.076;2024-02-28T03:12:46;20.53;;;14.17;;
15228;SDS011;7717;47.792;12.076;2024-02-28T03:15:12;20.43;;;14.40;;
15228;SDS011;7717;47.792;12.076;2024-02-28T03:17:37;21.57;;;15.17;;
15228;SDS011;7717;47.792;12.076;2024-02-28T03:20:02;22.30;;;13.67;;
15228;SDS011;7717;47.792;12.076;2024-02-28T03:22:28;20.60;;;14.23;;
15228;SDS011;7717;47.792;12.076;2024-02-28T03:24:53;18.73;;;13.50;;
15228;SDS011;7717;47.792;12.076;2024-02-28T03:27:19;19.27;;;13.60;;
15228;SDS011;7717;47.792;12.076;2024-02-28T03:29:44;18.00;;;13.03;;
15228;SDS011;7717;47.792;12.076;2024-02-28T03:32:09;18.70;;;12.73;;
15228;SDS011;7717;47.792;12.076;2024-02-28T03:34:35;19.60;;;13.47;;
15228;SDS011;7717;47.792;12.076;2024-02-28T03:37:00;19.33;;;14.00;;
15228;SDS011;7717;47.792;12.076;2024-02-28T03:39:26;16.30;;;12.00;;
15228;SDS011;7717;47.792;12.076;2024-02-28T03:41:51;19.23;;;13.20;;
15228;SDS011;7717;47.792;12.076;2024-02-28T03:44:16;20.50;;;13.07;;
15228;SDS011;7717;47.792;12.076;2024-02-28T03:46:42;19.17;;;13.33;;
15228;SDS011;7717;47.792;12.076;2024-02-28T03:49:07;19.77;;;12.60;;
15228;SDS011;7717;47.792;12.076;2024-02-28T03:51:38;17.30;;;12.47;;
15228;SDS011;7717;47.792;12.076;2024-02-28T03:54:04;19.10;;;12.80;;
15228;SDS011;7717;47.792;12.076;2024-02-28T03:56:30;18.87;;;12.67;;
15228;SDS011;7717;47.792;12.076;2024-02-28T03:58:55;18.73;;;13.40;;
15228;SDS011;7717;47.792;12.076;2024-02-28T04:01:20;18.30;;;13.60;;
15228;SDS011;7717;47.792;12.076;2024-02-28T04:03:46;17.97;;;13.40;;
15228;SDS011;7717;47.792;12.076;2024-02-28T04:06:11;19.27;;;13.03;;
15228;SDS011;7717;47.792;12.076;2024-02-28T04:08:36;23.17;;;13.57;;
15228;SDS011;7717;47.792;12.076;2024-02-28T04:11:02;20.30;;;14.17;;
15228;SDS011;7717;47.792;12.076;2024-02-28T04:13:27;20.70;;;13.80;;
15228;SDS011;7717;47.792;12.076;2024-02-28T04:15:53;19.87;;;13.90;;
15228;SDS011;7717;47.792;12.076;2024-02-28T04:18:18;20.67;;;13.77;;
15228;SDS011;7717;47.792;12.076;2024-02-28T04:20:43;19.03;;;13.10;;
15228;SDS011;7717;47.792;12.076;2024-02-28T04:23:09;17.10;;;12.97;;
15228;SDS011;7717;47.792;12.076;2024-02-28T04:25:34;20.67;;;13.40;;
15228;SDS011;7717;47.792;12.076;2024-02-28T04:28:01;22.07;;;13.97;;
15228;SDS011;7717;47.792;12.076;2024-02-28T04:30:27;18.03;;;13.07;;
15228;SDS011;7717;47.792;12.076;2024-02-28T04:32:52;18.73;;;12.43;;
15228;SDS011;7717;47.792;12.076;2024-02-28T04:35:17;19.77;;;13.67;;
15228;SDS011;7717;47.792;12.076;2024-02-28T04:37:46;18.67;;;14.00;;
15228;SDS011;7717;47.792;12.076;2024-02-28T04:40:12;18.47;;;14.00;;
15228;SDS011;7717;47.792;12.076;2024-02-28T04:42:38;21.50;;;14.57;;
15228;SDS011;7717;47.792;12.076;2024-02-28T04:45:04;20.80;;;13.30;;
15228;SDS011;7717;47.792;12.076;2024-02-28T04:47:30;21.50;;;14.10;;
15228;SDS011;7717;47.792;12.076;2024-02-28T04:49:55;19.03;;;13.17;;
15228;SDS011;7717;47.792;12.076;2024-02-28T04:52:21;18.23;;;12.70;;
15228;SDS011;7717;47.792;12.076;2024-02-28T04:54:47;17.27;;;12.73;;
15228;SDS011;7717;47.792;12.076;2024-02-28T04:57:12;17.73;;;13.33;;
15228;SDS011;7717;47.792;12.076;2024-02-28T04:59:37;18.30;;;13.50;;
15228;SDS011;7717;47.792;12.076;2024-02-28T05:02:03;18.33;;;13.33;;
15228;SDS011;7717;47.792;12.076;2024-02-28T05:04:28;19.00;;;13.10;;
15228;SDS011;7717;47.792;12.076;2024-02-28T05:06:53;20.93;;;13.50;;
15228;SDS011;7717;47.792;12.076;2024-02-28T05:09:19;19.87;;;13.77;;
15228;SDS011;7717;47.792;12.076;2024-02-28T05:11:44;20.10;;;13.23;;
15228;SDS011;7717;47.792;12.076;2024-02-28T05:14:10;17.47;;;12.87;;
15228;SDS011;7717;47.792;12.076;2024-02-28T05:16:35;17.10;;;12.67;;
15228;SDS011;7717;47.792;12.076;2024-02-28T05:19:01;15.00;;;10.80;;
15228;SDS011;7717;47.792;12.076;2024-02-28T05:21:26;13.97;;;10.80;;
15228;SDS011;7717;47.792;12.076;2024-02-28T05:23:53;15.47;;;10.37;;
15228;SDS011;7717;47.792;12.076;2024-02-28T05:26:18;13.77;;;10.17;;
15228;SDS011;7717;47.792;12.076;2024-02-28T05:28:43;15.90;;;11.20;;
15228;SDS011;7717;47.792;12.076;2024-02-28T05:31:22;12.83;;;10.00;;
15228;SDS011;7717;47.792;12.076;2024-02-28T05:33:52;15.17;;;10.33;;
15228;SDS011;7717;47.792;12.076;2024-02-28T05:36:23;15.90;;;12.20;;
15228;SDS011;7717;47.792;12.076;2024-02-28T05:38:49;17.00;;;12.97;;
15228;SDS011;7717;47.792;12.076;2024-02-28T05:41:18;19.30;;;14.40;;
15228;SDS011;7717;47.792;12.076;2024-02-28T05:43:43;20.53;;;15.10;;
15228;SDS011;7717;47.792;12.076;2024-02-28T05:46:11;17.77;;;14.73;;
15228;SDS011;7717;47.792;12.076;2024-02-28T05:48:36;17.73;;;13.73;;
15228;SDS011;7717;47.792;12.076;2024-02-28T05:51:02;16.63;;;12.77;;
15228;SDS011;7717;47.792;12.076;2024-02-28T05:53:28;16.27;;;12.30;;
15228;SDS011;7717;47.792;12.076;2024-02-28T05:55:57;19.13;;;13.27;;
15228;SDS011;7717;47.792;12.076;2024-02-28T05:58:23;20.80;;;13.53;;
15228;SDS011;7717;47.792;12.076;2024-02-28T06:00:48;18.50;;;12.57;;
15228;SDS011;7717;47.792;12.076;2024-02-28T06:03:14;19.17;;;13.43;;
15228;SDS011;7717;47.792;12.076;2024-02-28T06:05:39;24.40;;;15.33;;
15228;SDS011;7717;47.792;12.076;2024-02-28T06:08:05;17.47;;;13.67;;
15228;SDS011;7717;47.792;12.076;2024-02-28T06:10:31;23.40;;;18.07;;
15228;SDS011;7717;47.792;12.076;2024-02-28T06:12:56;28.67;;;19.97;;
15228;SDS011;7717;47.792;12.076;2024-02-28T06:15:21;32.40;;;21.87;;
15228;SDS011;7717;47.792;12.076;2024-02-28T06:17:47;41.03;;;25.43;;
15228;SDS011;7717;47.792;12.076;2024-02-28T06:20:12;32.43;;;21.60;;
15228;SDS011;7717;47.792;12.076;2024-02-28T06:22:37;26.97;;;17.67;;
15228;SDS011;7717;47.792;12.076;2024-02-28T06:25:03;24.17;;;16.53;;
15228;SDS011;7717;47.792;12.076;2024-02-28T06:27:32;26.23;;;17.37;;
15228;SDS011;7717;47.792;12.076;2024-02-28T06:29:58;21.67;;;15.17;;
15228;SDS011;7717;47.792;12.076;2024-02-28T06:32:24;32.67;;;22.50;;
15228;SDS011;7717;47.792;12.076;2024-02-28T06:34:50;37.10;;;25.83;;
15228;SDS011;7717;47.792;12.076;2024-02-28T06:37:15;40.60;;;26.70;;
15228;SDS011;7717;47.792;12.076;2024-02-28T06:39:41;35.57;;;25.17;;
15228;SDS011;7717;47.792;12.076;2024-02-28T06:42:07;30.33;;;21.70;;
15228;SDS011;7717;47.792;12.076;2024-02-28T06:44:32;20.77;;;15.80;;
15228;SDS011;7717;47.792;12.076;2024-02-28T06:46:57;18.97;;;14.40;;
15228;SDS011;7717;47.792;12.076;2024-02-28T06:49:23;22.50;;;16.03;;
15228;SDS011;7717;47.792;12.076;2024-02-28T06:51:49;19.40;;;14.67;;
15228;SDS011;7717;47.792;12.076;2024-02-28T06:54:14;21.83;;;15.43;;
15228;SDS011;7717;47.792;12.076;2024-02-28T06:56:40;17.13;;;12.87;;
15228;SDS011;7717;47.792;12.076;2024-02-28T06:59:05;14.57;;;11.93;;
15228;SDS011;7717;47.792;12.076;2024-02-28T07:01:32;20.30;;;15.63;;
15228;SDS011;7717;47.792;12.076;2024-02-28T07:03:57;17.23;;;14.20;;
15228;SDS011;7717;47.792;12.076;2024-02-28T07:06:23;14.10;;;11.13;;
15228;SDS011;7717;47.792;12.076;2024-02-28T07:08:48;18.13;;;12.83;;
15228;SDS011;7717;47.792;12.076;2024-02-28T07:11:14;17.27;;;14.40;;
15228;SDS011;7717;47.792;12.076;2024-02-28T07:13:39;19.90;;;12.93;;
15228;SDS011;7717;47.792;12.076;2024-02-28T07:16:05;22.00;;;16.50;;
15228;SDS011;7717;47.792;12.076;2024-02-28T07:18:31;23.23;;;16.00;;
15228;SDS011;7717;47.792;12.076;2024-02-28T07:20:57;22.93;;;16.80;;
15228;SDS011;7717;47.792;12.076;2024-02-28T07:23:22;23.07;;;16.57;;
15228;SDS011;7717;47.792;12.076;2024-02-28T07:25:48;21.33;;;16.30;;
15228;SDS011;7717;47.792;12.076;2024-02-28T07:28:13;21.07;;;16.67;;
15228;SDS011;7717;47.792;12.076;2024-02-28T07:30:38;22.40;;;17.00;;
15228;SDS011;7717;47.792;12.076;2024-02-28T07:33:05;21.90;;;17.13;;
15228;SDS011;7717;47.792;12.076;2024-02-28T07:35:30;20.60;;;14.60;;
15228;SDS011;7717;47.792;12.076;2024-02-28T07:37:56;18.77;;;14.10;;
15228;SDS011;7717;47.792;12.076;2024-02-28T07:40:21;17.23;;;12.80;;
15228;SDS011;7717;47.792;12.076;2024-02-28T07:42:47;24.20;;;16.30;;
15228;SDS011;7717;47.792;12.076;2024-02-28T07:45:12;20.63;;;15.93;;
15228;SDS011;7717;47.792;12.076;2024-02-28T07:47:38;21.10;;;14.93;;
15228;SDS011;7717;47.792;12.076;2024-02-28T07:50:05;18.47;;;13.73;;
15228;SDS011;7717;47.792;12.076;2024-02-28T07:52:31;25.83;;;19.40;;
15228;SDS011;7717;47.792;12.076;2024-02-28T07:55:00;23.37;;;16.67;;
15228;SDS011;7717;47.792;12.076;2024-02-28T07:57:25;26.77;;;16.47;;
15228;SDS011;7717;47.792;12.076;2024-02-28T07:59:50;20.37;;;13.73;;
15228;SDS011;7717;47.792;12.076;2024-02-28T08:02:16;18.50;;;13.73;;
15228;SDS011;7717;47.792;12.076;2024-02-28T08:04:44;21.13;;;13.70;;
15228;SDS011;7717;47.792;12.076;2024-02-28T08:07:10;22.17;;;14.07;;
15228;SDS011;7717;47.792;12.076;2024-02-28T08:09:35;21.03;;;14.50;;
15228;SDS011;7717;47.792;12.076;2024-02-28T08:12:00;19.43;;;13.93;;
15228;SDS011;7717;47.792;12.076;2024-02-28T08:14:26;21.67;;;13.43;;
15228;SDS011;7717;47.792;12.076;2024-02-28T08:16:52;20.57;;;14.60;;
15228;SDS011;7717;47.792;12.076;2024-02-28T08:19:17;20.43;;;15.43;;
15228;SDS011;7717;47.792;12.076;2024-02-28T08:21:43;19.73;;;15.47;;
15228;SDS011;7717;47.792;12.076;2024-02-28T08:24:08;22.27;;;14.10;;
15228;SDS011;7717;47.792;12.076;2024-02-28T08:26:33;21.77;;;14.97;;
15228;SDS011;7717;47.792;12.076;2024-02-28T08:28:59;19.00;;;14.17;;
15228;SDS011;7717;47.792;12.076;2024-02-28T08:31:24;16.73;;;13.63;;
15228;SDS011;7717;47.792;12.076;2024-02-28T08:33:50;17.77;;;12.90;;
15228;SDS011;7717;47.792;12.076;2024-02-28T08:36:15;20.23;;;13.80;;
15228;SDS011;7717;47.792;12.076;2024-02-28T08:38:40;18.37;;;13.93;;
15228;SDS011;7717;47.792;12.076;2024-02-28T08:41:06;19.27;;;13.83;;
15228;SDS011;7717;47.792;12.076;2024-02-28T08:43:33;18.43;;;14.33;;
15228;SDS011;7717;47.792;12.076;2024-02-28T08:46:02;17.70;;;13.33;;
15228;SDS011;7717;47.792;12.076;2024-02-28T08:48:28;21.20;;;14.73;;
15228;SDS011;7717;47.792;12.076;2024-02-28T08:50:54;18.33;;;13.97;;
15228;SDS011;7717;47.792;12.076;2024-02-28T08:53:19;19.17;;;13.77;;
15228;SDS011;7717;47.792;12.076;2024-02-28T08:55:44;18.03;;;13.53;;
15228;SDS011;7717;47.792;12.076;2024-02-28T08:58:10;16.97;;;12.73;;
15228;SDS011;7717;47.792;12.076;2024-02-28T09:00:35;17.17;;;13.13;;
15228;SDS011;7717;47.792;12.076;2024-02-28T09:03:01;16.50;;;13.30;;
15228;SDS011;7717;47.792;12.076;2024-02-28T09:05:27;17.90;;;14.67;;
15228;SDS011;7717;47.792;12.076;2024-02-28T09:07:52;17.10;;;14.03;;
15228;SDS011;7717;47.792;12.076;2024-02-28T09:10:19;20.47;;;14.67;;
15228;SDS011;7717;47.792;12.076;2024-02-28T09:12:48;18.37;;;12.90;;
15228;SDS011;7717;47.792;12.076;2024-02-28T09:15:14;25.30;;;14.10;;
15228;SDS011;7717;47.792;12.076;2024-02-28T09:17:43;20.70;;;13.97;;
15228;SDS011;7717;47.792;12.076;2024-02-28T09:20:08;19.67;;;14.40;;
15228;SDS011;7717;47.792;12.076;2024-02-28T09:22:34;22.20;;;15.90;;
15228;SDS011;7717;47.792;12.076;2024-02-28T09:25:00;22.70;;;17.13;;
15228;SDS011;7717;47.792;12.076;2024-02-28T09:27:28;23.77;;;17.47;;
15228;SDS011;7717;47.792;12.076;2024-02-28T09:29:54;23.47;;;16.33;;
15228;SDS011;7717;47.792;12.076;2024-02-28T09:32:19;21.33;;;15.37;;
15228;SDS011;7717;47.792;12.076;2024-02-28T09:34:45;24.27;;;15.47;;
15228;SDS011;7717;47.792;12.076;2024-02-28T09:37:10;25.83;;;15.60;;
15228;SDS011;7717;47.792;12.076;2024-02-28T09:39:38;21.50;;;14.77;;
15228;SDS011;7717;47.792;12.076;2024-02-28T09:42:07;22.13;;;14.17;;
15228;SDS011;7717;47.792;12.076;2024-02-28T09:44:33;24.73;;;17.50;;
15228;SDS011;7717;47.792;12.076;2024-02-28T09:46:59;21.57;;;14.83;;
15228;SDS011;7717;47.792;12.076;2024-02-28T09:49:24;22.83;;;14.67;;
15228;SDS011;7717;47.792;12.076;2024-02-28T09:51:52;19.20;;;14.17;;
15228;SDS011;7717;47.792;12.076;2024-02-28T09:54:18;20.63;;;14.33;;
15228;SDS011;7717;47.792;12.076;2024-02-28T09:56:43;22.10;;;16.23;;
15228;SDS011;7717;47.792;12.076;2024-02-28T09:59:10;22.70;;;14.63;;
15228;SDS011;7717;47.792;12.076;2024-02-28T10:01:37;22.07;;;17.47;;
15228;SDS011;7717;47.792;12.076;2024-02-28T10:04:12;21.50;;;15.37;;
15228;SDS011;7717;47.792;12.076;2024-02-28T10:06:41;21.60;;;14.57;;
15228;SDS011;7717;47.792;12.076;2024-02-28T10:09:06;20.33;;;14.67;;
15228;SDS011;7717;47.792;12.076;2024-02-28T10:11:32;20.03;;;14.17;;
15228;SDS011;7717;47.792;12.076;2024-02-28T10:14:00;19.47;;;14.13;;
15228;SDS011;7717;47.792;12.076;2024-02-28T10:16:26;18.90;;;14.83;;
15228;SDS011;7717;47.792;12.076;2024-02-28T10:18:52;22.50;;;14.93;;
15228;SDS011;7717;47.792;12.076;2024-02-28T10:21:18;20.23;;;14.60;;
15228;SDS011;7717;47.792;12.076;2024-02-28T10:23:44;22.33;;;16.03;;
15228;SDS011;7717;47.792;12.076;2024-02-28T10:26:10;19.63;;;14.93;;
15228;SDS011;7717;47.792;12.076;2024-02-28T10:28:37;17.97;;;14.50;;
15228;SDS011;7717;47.792;12.076;2024-02-28T10:31:03;20.13;;;13.97;;
15228;SDS011;7717;47.792;12.076;2024-02-28T10:33:30;19.93;;;15.37;;
15228;SDS011;7717;47.792;12.076;2024-02-28T10:35:58;22.20;;;15.10;;
15228;SDS011;7717;47.792;12.076;2024-02-28T10:38:24;22.77;;;15.13;;
15228;SDS011;7717;47.792;12.076;2024-02-28T10:40:51;21.13;;;15.00;;
15228;SDS011;7717;47.792;12.076;2024-02-28T10:43:18;20.63;;;15.73;;
15228;SDS011;7717;47.792;12.076;2024-02-28T10:45:45;20.77;;;15.43;;
15228;SDS011;7717;47.792;12.076;2024-02-28T10:48:11;22.40;;;16.93;;
15228;SDS011;7717;47.792;12.076;2024-02-28T10:50:39;27.43;;;17.53;;
15228;SDS011;7717;47.792;12.076;2024-02-28T10:53:05;28.57;;;17.33;;
15228;SDS011;7717;47.792;12.076;2024-02-28T10:55:41;27.03;;;17.30;;
15228;SDS011;7717;47.792;12.076;2024-02-28T10:58:09;28.37;;;17.90;;
15228;SDS011;7717;47.792;12.076;2024-02-28T11:00:39;27.70;;;19.00;;
15228;SDS011;7717;47.792;12.076;2024-02-28T11:03:12;25.67;;;18.33;;
15228;SDS011;7717;47.792;12.076;2024-02-28T11:05:42;29.07;;;17.60;;
15228;SDS011;7717;47.792;12.076;2024-02-28T11:10:47;29.43;;;19.33;;
15228;SDS011;7717;47.792;12.076;2024-02-28T11:13:25;27.80;;;19.83;;
15228;SDS011;7717;47.792;12.076;2024-02-28T11:15:52;31.70;;;20.57;;
15228;SDS011;7717;47.792;12.076;2024-02-28T11:18:18;29.17;;;19.77;;
15228;SDS011;7717;47.792;12.076;2024-02-28T11:20:44;27.17;;;19.03;;
15228;SDS011;7717;47.792;12.076;2024-02-28T11:23:13;30.90;;;20.97;;
15228;SDS011;7717;47.792;12.076;2024-02-28T11:25:39;31.07;;;21.40;;
15228;SDS011;7717;47.792;12.076;2024-02-28T11:28:05;33.93;;;21.07;;
15228;SDS011;7717;47.792;12.076;2024-02-28T11:30:32;32.03;;;19.83;;
15228;SDS011;7717;47.792;12.076;2024-02-28T11:32:57;31.67;;;20.53;;
15228;SDS011;7717;47.792;12.076;2024-02-28T11:35:24;28.83;;;19.83;;
15228;SDS011;7717;47.792;12.076;2024-02-28T11:37:50;31.83;;;21.00;;
15228;SDS011;7717;47.792;12.076;2024-02-28T11:40:18;30.27;;;20.43;;
15228;SDS011;7717;47.792;12.076;2024-02-28T11:42:44;29.30;;;19.27;;
15228;SDS011;7717;47.792;12.076;2024-02-28T11:45:09;26.57;;;18.73;;
15228;SDS011;7717;47.792;12.076;2024-02-28T11:47:35;30.03;;;20.40;;
15228;SDS011;7717;47.792;12.076;2024-02-28T11:50:01;27.77;;;19.37;;
15228;SDS011;7717;47.792;12.076;2024-02-28T11:52:27;29.60;;;19.83;;
15228;SDS011;7717;47.792;12.076;2024-02-28T11:54:55;30.40;;;20.57;;
15228;SDS011;7717;47.792;12.076;2024-02-28T11:57:21;29.13;;;19.47;;
15228;SDS011;7717;47.792;12.076;2024-02-28T11:59:46;31.37;;;20.53;;
15228;SDS011;7717;47.792;12.076;2024-02-28T12:02:12;31.90;;;21.10;;
15228;SDS011;7717;47.792;12.076;2024-02-28T12:04:38;32.27;;;21.90;;
15228;SDS011;7717;47.792;12.076;2024-02-28T12:07:05;33.20;;;19.87;;
15228;SDS011;7717;47.792;12.076;2024-02-28T12:09:31;29.83;;;19.37;;
15228;SDS011;7717;47.792;12.076;2024-02-28T12:11:59;27.27;;;20.30;;
15228;SDS011;7717;47.792;12.076;2024-02-28T12:14:26;27.40;;;19.20;;
15228;SDS011;7717;47.792;12.076;2024-02-28T12:16:52;25.37;;;19.07;;
15228;SDS011;7717;47.792;12.076;2024-02-28T12:19:17;30.73;;;19.40;;
15228;SDS011;7717;47.792;12.076;2024-02-28T12:21:45;30.23;;;20.30;;
15228;SDS011;7717;47.792;12.076;2024-02-28T12:24:11;33.23;;;21.33;;
15228;SDS011;7717;47.792;12.076;2024-02-28T12:26:37;35.60;;;21.90;;
15228;SDS011;7717;47.792;12.076;2024-02-28T12:29:03;33.87;;;21.80;;
15228;SDS011;7717;47.792;12.076;2024-02-28T12:31:28;33.67;;;20.73;;
15228;SDS011;7717;47.792;12.076;2024-02-28T12:33:54;30.60;;;20.47;;
15228;SDS011;7717;47.792;12.076;2024-02-28T12:36:19;29.53;;;19.63;;
15228;SDS011;7717;47.792;12.076;2024-02-28T12:38:45;31.63;;;21.03;;
15228;SDS011;7717;47.792;12.076;2024-02-28T12:41:10;30.83;;;20.27;;
15228;SDS011;7717;47.792;12.076;2024-02-28T12:43:36;29.87;;;19.47;;
15228;SDS011;7717;47.792;12.076;2024-02-28T12:46:01;33.27;;;21.10;;
15228;SDS011;7717;47.792;12.076;2024-02-28T12:48:27;29.80;;;20.03;;
15228;SDS011;7717;47.792;12.076;2024-02-28T12:50:54;30.17;;;20.43;;
15228;SDS011;7717;47.792;12.076;2024-02-28T12:53:19;29.87;;;19.73;;
15228;SDS011;7717;47.792;12.076;2024-02-28T12:55:45;32.83;;;21.87;;
15228;SDS011;7717;47.792;12.076;2024-02-28T12:58:10;28.87;;;20.43;;
15228;SDS011;7717;47.792;12.076;2024-02-28T13:00:36;34.10;;;21.23;;
15228;SDS011;7717;47.792;12.076;2024-02-28T13:03:01;34.00;;;20.97;;
15228;SDS011;7717;47.792;12.076;2024-02-28T13:05:28;35.97;;;22.73;;
15228;SDS011;7717;47.792;12.076;2024-02-28T13:07:53;35.40;;;21.90;;
15228;SDS011;7717;47.792;12.076;2024-02-28T13:10:19;31.93;;;22.20;;
15228;SDS011;7717;47.792;12.076;2024-02-28T13:12:44;35.73;;;24.57;;
15228;SDS011;7717;47.792;12.076;2024-02-28T13:15:09;36.53;;;22.20;;
15228;SDS011;7717;47.792;12.076;2024-02-28T13:17:35;32.10;;;21.83;;
15228;SDS011;7717;47.792;12.076;2024-02-28T13:20:01;34.87;;;22.67;;
15228;SDS011;7717;47.792;12.076;2024-02-28T13:22:28;34.47;;;22.80;;
15228;SDS011;7717;47.792;12.076;2024-02-28T13:24:53;32.80;;;21.93;;
15228;SDS011;7717;47.792;12.076;2024-02-28T13:27:19;32.27;;;21.80;;
15228;SDS011;7717;47.792;12.076;2024-02-28T13:29:45;38.67;;;25.00;;
15228;SDS011;7717;47.792;12.076;2024-02-28T13:32:10;35.57;;;23.70;;
15228;SDS011;7717;47.792;12.076;2024-02-28T13:34:35;37.10;;;24.60;;
15228;SDS011;7717;47.792;12.076;2024-02-28T13:37:01;41.00;;;25.13;;
15228;SDS011;7717;47.792;12.076;2024-02-28T13:39:26;39.33;;;24.50;;
15228;SDS011;7717;47.792;12.076;2024-02-28T13:41:52;34.33;;;23.43;;
15228;SDS011;7717;47.792;12.076;2024-02-28T13:44:18;34.73;;;23.13;;
15228;SDS011;7717;47.792;12.076;2024-02-28T13:46:46;36.10;;;23.43;;
15228;SDS011;7717;47.792;12.076;2024-02-28T13:49:13;35.27;;;23.10;;
15228;SDS011;7717;47.792;12.076;2024-02-28T13:51:39;38.37;;;23.47;;
15228;SDS011;7717;47.792;12.076;2024-02-28T13:54:04;37.40;;;24.17;;
15228;SDS011;7717;47.792;12.076;2024-02-28T13:56:30;39.83;;;24.23;;
15228;SDS011;7717;47.792;12.076;2024-02-28T13:58:56;42.47;;;25.37;;
15228;SDS011;7717;47.792;12.076;2024-02-28T14:01:22;42.20;;;26.23;;
15228;SDS011;7717;47.792;12.076;2024-02-28T14:03:47;40.10;;;24.17;;
15228;SDS011;7717;47.792;12.076;2024-02-28T14:06:13;41.87;;;25.43;;
15228;SDS011;7717;47.792;12.076;2024-02-28T14:08:39;40.93;;;25.50;;
15228;SDS011;7717;47.792;12.076;2024-02-28T14:11:05;38.73;;;22.83;;
15228;SDS011;7717;47.792;12.076;2024-02-28T14:13:30;37.13;;;26.03;;
15228;SDS011;7717;47.792;12.076;2024-02-28T14:15:56;40.83;;;25.70;;